Kezdőlap
METAR-TAF:

METAR-TAF

Repülőterek :

Örebro, Svédország

földrajzi szélesség: 59-14N, földrajzi hosszúság: 015-03E, magasság: 57 m

Jelenlegi meteorológiai megfigyelések

A jelentés 39 perccel ezelõtt készült, 21:20 UTC
Nyugat-délnyugati szél 5 kt
Hőmérséklet 17°C
Páratartalom 82%
Légköri nyomás 1016 hPa
Látótávolság 10 km, vagy több

METAR: ESOE 192120Z AUTO 24005KT 9999 NCD 17/14 Q1016

Idő: 23:59 (21:59 UTC)

Előrejelzés

A jelentés 4 órával és 29 perccel ezelõtt készült, 17:30 UTC
Az előrejelzés 19-én 18 óra UTC és 19-én 21 óra UTC között érvényes
Nyugati szél 7 kt
Látótávolság 10 km, vagy több
felhőtlen 1500 m magasságban, és nincs gomolyfelhõ

TAF: ESOE 191730Z 1918/1921 26007KT CAVOK

Meteorológiai megfigyelések és előrejelzések több, mint 4000 repülőtéren (METAR és TAF jelentéseket).

A térképen piros és sárga pontok jelzik az elérhető meteorológiai állomásokat.

Mozgassa az egeret a pont fölött, hogy megjelenjen az állomás neve.

Azután kattintson az időjárási megfigyelések és előrejelzések megtekintéséhez.

A térkép megváltoztatása: kattintson a fekete keresztel jelölt zöld gombra ráközelítéshez, a vonallal jelölt zöld gombra távolításhoz, vagy a zöld nyilakra a szomszédos térképek eléréséhez.


METAR-TAF: